createdAt,value
2024-01-22T00:02:11.849Z,13.53
2024-01-22T00:05:01.231Z,12.73
2024-01-22T00:07:49.230Z,13.83
2024-01-22T00:10:37.233Z,12.93
2024-01-22T00:13:25.214Z,13.30
2024-01-22T00:16:13.960Z,12.50
2024-01-22T00:19:02.198Z,12.57
2024-01-22T00:21:51.584Z,13.00
2024-01-22T00:24:39.605Z,12.17
2024-01-22T00:27:27.666Z,12.43
2024-01-22T00:30:16.803Z,12.50
2024-01-22T00:33:05.510Z,12.50
2024-01-22T00:35:53.873Z,12.00
2024-01-22T00:38:43.704Z,12.47
2024-01-22T00:41:31.765Z,10.90
2024-01-22T00:44:19.786Z,12.00
2024-01-22T00:47:08.022Z,11.33
2024-01-22T00:49:56.333Z,11.37
2024-01-22T00:52:44.499Z,11.40
2024-01-22T00:55:34.573Z,11.60
2024-01-22T00:58:22.518Z,11.70
2024-01-22T01:01:10.601Z,11.63
2024-01-22T01:03:58.666Z,10.67
2024-01-22T01:06:46.721Z,10.97
2024-01-22T01:09:35.212Z,11.73
2024-01-22T01:12:24.584Z,11.67
2024-01-22T01:15:13.177Z,10.80
2024-01-22T01:18:01.370Z,11.13
2024-01-22T01:20:49.437Z,11.30
2024-01-22T01:23:37.592Z,12.63
2024-01-22T01:26:25.597Z,10.80
2024-01-22T01:29:15.102Z,10.63
2024-01-22T01:32:03.198Z,10.27
2024-01-22T01:34:51.299Z,9.77
2024-01-22T01:37:39.482Z,9.97
2024-01-22T01:40:28.024Z,9.37
2024-01-22T01:43:17.366Z,9.30
2024-01-22T01:46:06.767Z,9.70
2024-01-22T01:48:55.603Z,10.17
2024-01-22T01:51:43.778Z,10.13
2024-01-22T01:54:32.518Z,9.40
2024-01-22T01:57:23.970Z,9.30
2024-01-22T02:00:14.781Z,9.50
2024-01-22T02:03:04.497Z,8.80
2024-01-22T02:05:52.711Z,8.60
2024-01-22T02:08:40.887Z,8.70
2024-01-22T02:11:28.919Z,9.03
2024-01-22T02:14:16.954Z,8.00
2024-01-22T02:17:05.010Z,8.20
2024-01-22T02:19:54.535Z,8.33
2024-01-22T02:22:42.638Z,8.67
2024-01-22T02:25:32.154Z,7.27
2024-01-22T02:28:20.239Z,7.40
2024-01-22T02:31:09.941Z,7.93
2024-01-22T02:33:58.151Z,7.37
2024-01-22T02:36:46.505Z,7.23
2024-01-22T02:39:34.852Z,6.97
2024-01-22T02:42:24.207Z,7.60
2024-01-22T02:45:12.968Z,6.47
2024-01-22T02:48:01.198Z,6.80
2024-01-22T02:50:49.380Z,7.00
2024-01-22T02:53:38.461Z,6.30
2024-01-22T02:56:26.671Z,6.03
2024-01-22T02:59:16.942Z,6.10
2024-01-22T03:02:05.235Z,6.97
2024-01-22T03:04:53.488Z,6.70
2024-01-22T03:07:41.561Z,6.03
2024-01-22T03:10:29.590Z,5.87
2024-01-22T03:13:17.686Z,5.53
2024-01-22T03:16:07.679Z,5.60
2024-01-22T03:18:56.273Z,5.77
2024-01-22T03:21:44.480Z,5.90
2024-01-22T03:24:33.266Z,6.00
2024-01-22T03:27:21.422Z,5.53
2024-01-22T03:30:10.410Z,5.97
2024-01-22T03:32:59.878Z,5.37
2024-01-22T03:35:48.165Z,5.77
2024-01-22T03:38:36.234Z,5.57
2024-01-22T03:41:24.307Z,4.63
2024-01-22T03:44:12.589Z,5.30
2024-01-22T03:47:00.633Z,5.33
2024-01-22T03:49:50.149Z,5.30
2024-01-22T03:52:38.186Z,5.00
2024-01-22T03:55:26.284Z,5.00
2024-01-22T03:58:14.721Z,5.40
2024-01-22T04:01:03.846Z,4.50
2024-01-22T04:03:52.772Z,4.63
2024-01-22T04:06:42.305Z,5.00
2024-01-22T04:09:30.393Z,4.97
2024-01-22T04:12:19.355Z,4.97
2024-01-22T04:15:09.163Z,4.30
2024-01-22T04:17:57.376Z,4.03
2024-01-22T04:20:45.587Z,4.37
2024-01-22T04:23:36.010Z,4.37
2024-01-22T04:26:24.505Z,4.20
2024-01-22T04:29:12.549Z,4.03
2024-01-22T04:32:00.686Z,4.73
2024-01-22T04:34:49.041Z,4.23
2024-01-22T04:37:37.363Z,4.43
2024-01-22T04:40:27.155Z,4.03
2024-01-22T04:43:15.368Z,3.60
2024-01-22T04:46:03.938Z,4.23
2024-01-22T04:48:52.082Z,3.97
2024-01-22T04:51:43.155Z,3.57
2024-01-22T04:54:31.185Z,3.63
2024-01-22T04:57:20.679Z,4.00
2024-01-22T05:00:09.993Z,3.73
2024-01-22T05:02:58.207Z,3.60
2024-01-22T05:05:46.597Z,3.50
2024-01-22T05:08:34.897Z,3.30
2024-01-22T05:11:23.510Z,3.47
2024-01-22T05:14:12.973Z,3.50
2024-01-22T05:17:00.985Z,3.30
2024-01-22T05:19:49.172Z,3.60
2024-01-22T05:22:37.701Z,3.73
2024-01-22T05:25:25.754Z,3.00
2024-01-22T05:28:13.810Z,3.33
2024-01-22T05:31:03.779Z,3.37
2024-01-22T05:33:52.057Z,3.03
2024-01-22T05:36:41.368Z,2.90
2024-01-22T05:39:29.427Z,3.00
2024-01-22T05:42:17.520Z,2.57
2024-01-22T05:45:06.299Z,3.47
2024-01-22T05:47:56.211Z,3.30
2024-01-22T05:50:44.414Z,2.83
2024-01-22T05:53:32.434Z,3.20
2024-01-22T05:56:26.435Z,3.10
2024-01-22T05:59:14.473Z,2.83
2024-01-22T06:02:02.552Z,2.87
2024-01-22T06:04:52.009Z,3.23
2024-01-22T06:07:40.223Z,2.80
2024-01-22T06:10:28.434Z,2.60
2024-01-22T06:13:16.466Z,2.77
2024-01-22T06:16:04.747Z,2.27
2024-01-22T06:18:52.878Z,2.50
2024-01-22T06:21:42.299Z,2.73
2024-01-22T06:24:30.386Z,2.83
2024-01-22T06:27:18.748Z,2.40
2024-01-22T06:30:08.151Z,2.40
2024-01-22T06:32:56.338Z,2.60
2024-01-22T06:35:45.453Z,2.40
2024-01-22T06:38:35.388Z,2.40
2024-01-22T06:41:24.630Z,2.53
2024-01-22T06:44:13.500Z,2.30
2024-01-22T06:47:02.071Z,2.20
2024-01-22T06:49:50.248Z,2.57
2024-01-22T06:52:38.696Z,2.60
2024-01-22T06:55:28.101Z,2.03
2024-01-22T06:58:17.710Z,2.00
2024-01-22T07:01:06.901Z,2.20
2024-01-22T07:03:55.277Z,2.50
2024-01-22T07:06:43.487Z,2.10
2024-01-22T07:09:31.600Z,2.10
2024-01-22T07:12:22.117Z,2.00
2024-01-22T07:15:14.237Z,2.30
2024-01-22T07:18:03.358Z,2.17
2024-01-22T07:20:51.450Z,2.10
2024-01-22T07:23:39.869Z,2.10
2024-01-22T07:26:28.062Z,2.23
2024-01-22T07:29:17.648Z,2.30
2024-01-22T07:32:05.921Z,2.23
2024-01-22T07:34:54.444Z,2.10
2024-01-22T07:37:46.275Z,2.00
2024-01-22T07:40:35.083Z,2.00
2024-01-22T07:43:23.073Z,2.10
2024-01-22T07:46:12.584Z,2.30
2024-01-22T07:49:00.861Z,2.13
2024-01-22T07:51:48.966Z,2.30
2024-01-22T07:54:36.972Z,1.97
2024-01-22T07:57:25.073Z,2.17
2024-01-22T08:00:14.226Z,2.30
2024-01-22T08:03:03.743Z,1.90
2024-01-22T08:05:51.928Z,2.30
2024-01-22T08:08:42.418Z,2.50
2024-01-22T08:11:30.548Z,2.80
2024-01-22T08:14:18.654Z,2.63
2024-01-22T08:17:06.668Z,2.70
2024-01-22T08:19:56.185Z,2.37
2024-01-22T08:22:44.829Z,3.10
2024-01-22T08:25:32.965Z,2.90
2024-01-22T08:28:21.162Z,2.60
2024-01-22T08:31:09.156Z,2.97
2024-01-22T08:33:58.162Z,2.83
2024-01-22T08:36:47.707Z,2.53
2024-01-22T08:39:35.891Z,2.80
2024-01-22T08:42:24.111Z,3.00
2024-01-22T08:45:12.276Z,3.03
2024-01-22T08:48:00.404Z,3.07
2024-01-22T08:50:48.563Z,2.77
2024-01-22T08:53:37.986Z,2.73
2024-01-22T08:56:26.252Z,2.60
2024-01-22T08:59:16.021Z,2.80
2024-01-22T09:02:04.219Z,2.87
2024-01-22T09:04:52.309Z,2.60
2024-01-22T09:07:40.599Z,2.43
2024-01-22T09:10:30.138Z,2.63
2024-01-22T09:13:18.182Z,2.90
2024-01-22T09:16:06.842Z,2.53
2024-01-22T09:18:55.077Z,2.17
2024-01-22T09:21:44.529Z,2.40
2024-01-22T09:24:32.600Z,2.50
2024-01-22T09:27:21.995Z,2.93
2024-01-22T09:30:10.598Z,2.17
2024-01-22T09:33:00.328Z,2.40
2024-01-22T09:35:48.598Z,2.13
2024-01-22T09:38:36.608Z,2.60
2024-01-22T09:41:24.767Z,2.13
2024-01-22T09:44:15.025Z,2.40
2024-01-22T09:47:04.599Z,2.10
2024-01-22T09:49:53.217Z,2.23
2024-01-22T09:52:45.456Z,1.83
2024-01-22T09:55:34.894Z,2.20
2024-01-22T09:58:29.692Z,1.80
2024-01-22T10:01:19.753Z,1.80
2024-01-22T10:04:08.161Z,1.97
2024-01-22T10:06:56.993Z,2.27
2024-01-22T10:09:45.884Z,2.10
2024-01-22T10:13:00.813Z,1.93
2024-01-22T10:15:49.298Z,1.90
2024-01-22T10:18:39.335Z,1.90
2024-01-22T10:21:28.254Z,1.73
2024-01-22T10:24:17.122Z,1.90
2024-01-22T10:27:15.620Z,1.90
2024-01-22T10:30:11.887Z,1.70
2024-01-22T10:33:13.844Z,1.53
2024-01-22T10:36:16.665Z,1.73
2024-01-22T10:39:06.041Z,2.00
2024-01-22T10:41:56.298Z,1.60
2024-01-22T10:44:47.239Z,1.60
2024-01-22T10:47:36.457Z,1.67
2024-01-22T10:50:27.162Z,1.70
2024-01-22T10:53:18.517Z,1.60
2024-01-22T10:56:13.931Z,1.60
2024-01-22T10:59:09.325Z,1.50
2024-01-22T11:02:00.492Z,1.50
2024-01-22T11:04:49.004Z,1.50
2024-01-22T11:07:41.585Z,1.57
2024-01-22T11:10:31.979Z,1.40
2024-01-22T11:13:20.320Z,1.53
2024-01-22T11:16:08.772Z,1.60
2024-01-22T11:18:58.368Z,1.43
2024-01-22T11:21:46.592Z,1.70
2024-01-22T11:24:34.756Z,1.50
2024-01-22T11:27:38.064Z,1.40
2024-01-22T11:30:30.570Z,2.53
2024-01-22T11:33:36.724Z,1.57
2024-01-22T11:36:32.981Z,1.40
2024-01-22T11:39:44.415Z,1.63
2024-01-22T11:42:34.208Z,1.60
2024-01-22T11:45:27.860Z,1.33
2024-01-22T11:48:19.364Z,1.20
2024-01-22T11:51:09.398Z,1.33
2024-01-22T11:53:58.922Z,1.30
2024-01-22T11:56:47.316Z,1.20
2024-01-22T11:59:36.888Z,1.43
2024-01-22T12:02:24.939Z,1.20
2024-01-22T12:05:15.884Z,1.13
2024-01-22T12:08:03.975Z,1.60
2024-01-22T12:10:54.112Z,1.83
2024-01-22T12:13:43.492Z,1.47
2024-01-22T12:16:32.769Z,1.30
2024-01-22T12:19:20.830Z,1.23
2024-01-22T12:22:09.032Z,1.17
2024-01-22T12:25:08.398Z,1.73
2024-01-22T12:28:05.356Z,1.10
2024-01-22T12:31:00.951Z,1.30
2024-01-22T12:33:51.475Z,0.97
2024-01-22T12:36:40.041Z,1.20
2024-01-22T12:39:31.123Z,1.30
2024-01-22T12:42:20.971Z,0.97
2024-01-22T12:45:14.051Z,1.00
2024-01-22T12:48:02.290Z,0.97
2024-01-22T12:50:51.955Z,0.80
2024-01-22T12:53:42.498Z,1.17
2024-01-22T12:56:30.682Z,0.97
2024-01-22T12:59:18.881Z,0.97
2024-01-22T13:02:07.497Z,1.07
2024-01-22T13:04:56.032Z,0.70
2024-01-22T13:07:45.471Z,0.70
2024-01-22T13:10:34.608Z,0.77
2024-01-22T13:13:22.662Z,0.97
2024-01-22T13:16:14.647Z,0.87
2024-01-22T13:19:06.362Z,0.70
2024-01-22T13:21:54.669Z,0.80
2024-01-22T13:24:44.308Z,0.90
2024-01-22T13:27:33.667Z,0.80
2024-01-22T13:30:23.553Z,0.70
2024-01-22T13:33:12.141Z,0.70
2024-01-22T13:36:00.521Z,0.77
2024-01-22T13:38:48.666Z,0.67
2024-01-22T13:41:38.392Z,0.80
2024-01-22T13:44:26.438Z,0.90
2024-01-22T13:47:21.603Z,0.70
2024-01-22T13:50:20.899Z,0.57
2024-01-22T13:53:11.511Z,0.50
2024-01-22T13:55:59.685Z,0.40
2024-01-22T13:58:50.708Z,0.40
2024-01-22T14:01:38.916Z,0.40
2024-01-22T14:04:26.960Z,0.37
2024-01-22T14:07:15.155Z,0.30
2024-01-22T14:10:03.292Z,0.33
2024-01-22T14:12:51.424Z,0.30
2024-01-22T14:15:40.854Z,0.33
2024-01-22T14:18:29.826Z,0.60
2024-01-22T14:21:19.009Z,0.70
2024-01-22T14:24:07.633Z,0.90
2024-01-22T14:26:55.828Z,0.73
2024-01-22T14:29:43.986Z,0.70
2024-01-22T14:32:33.444Z,0.80
2024-01-22T14:35:22.581Z,0.80
2024-01-22T14:38:11.208Z,1.07
2024-01-22T14:41:00.631Z,0.57
2024-01-22T14:43:49.218Z,0.83
2024-01-22T14:46:42.328Z,0.67
2024-01-22T14:49:33.231Z,0.70
2024-01-22T14:52:22.097Z,0.80
2024-01-22T14:55:10.384Z,0.87
2024-01-22T14:57:58.362Z,1.30
2024-01-22T15:00:46.435Z,1.53
2024-01-22T15:03:34.505Z,1.20
2024-01-22T15:06:23.851Z,1.27
2024-01-22T15:09:14.372Z,1.57
2024-01-22T15:12:02.598Z,1.40
2024-01-22T15:14:50.709Z,1.03
2024-01-22T15:17:39.082Z,1.17
2024-01-22T15:20:27.119Z,1.17
2024-01-22T15:23:17.855Z,1.27
2024-01-22T15:26:06.553Z,1.23
2024-01-22T15:28:56.641Z,1.37
2024-01-22T15:31:46.262Z,1.60
2024-01-22T15:34:35.751Z,1.20
2024-01-22T15:37:23.884Z,1.63
2024-01-22T15:40:14.981Z,1.43
2024-01-22T15:43:03.093Z,2.00
2024-01-22T15:45:51.500Z,2.33
2024-01-22T15:48:39.636Z,1.43
2024-01-22T15:51:27.794Z,0.90
2024-01-22T15:54:16.202Z,1.40
2024-01-22T15:57:05.869Z,1.30
2024-01-22T15:59:53.902Z,1.23
2024-01-22T16:02:42.659Z,1.60
2024-01-22T16:05:31.153Z,1.77
2024-01-22T16:08:21.884Z,1.77
2024-01-22T16:11:10.035Z,1.83
2024-01-22T16:13:59.641Z,2.00
2024-01-22T16:16:47.663Z,1.73
2024-01-22T16:19:37.210Z,1.97
2024-01-22T16:22:25.661Z,2.00
2024-01-22T16:25:16.222Z,1.97
2024-01-22T16:28:07.441Z,2.10
2024-01-22T16:30:57.139Z,2.27
2024-01-22T16:33:45.956Z,2.47
2024-01-22T16:36:41.625Z,2.40
2024-01-22T16:39:31.903Z,2.53
2024-01-22T16:42:19.986Z,2.47
2024-01-22T16:45:08.719Z,2.33
2024-01-22T16:47:58.147Z,2.30
2024-01-22T16:50:46.392Z,3.53
2024-01-22T16:53:35.027Z,2.43
2024-01-22T16:56:23.021Z,2.33
2024-01-22T16:59:11.158Z,2.77
2024-01-22T17:01:59.181Z,2.60
2024-01-22T17:04:48.975Z,3.23
2024-01-22T17:07:37.242Z,3.50
2024-01-22T17:10:25.246Z,3.03
2024-01-22T17:13:13.531Z,2.90
2024-01-22T17:16:05.610Z,2.77
2024-01-22T17:18:54.414Z,3.00
2024-01-22T17:21:44.453Z,2.27
2024-01-22T17:24:32.487Z,2.60
2024-01-22T17:27:20.718Z,2.87
2024-01-22T17:30:10.046Z,2.40
2024-01-22T17:32:58.334Z,3.20
2024-01-22T17:35:47.010Z,2.77
2024-01-22T17:38:37.224Z,2.40
2024-01-22T17:41:25.463Z,3.00
2024-01-22T17:44:16.330Z,3.63
2024-01-22T17:47:04.456Z,2.60
2024-01-22T17:49:52.474Z,3.50
2024-01-22T17:52:40.400Z,2.80
2024-01-22T17:55:33.323Z,3.17
2024-01-22T17:58:21.491Z,2.70
2024-01-22T18:01:09.524Z,3.20
2024-01-22T18:03:59.857Z,2.63
2024-01-22T18:06:48.085Z,2.87
2024-01-22T18:09:38.058Z,2.67
2024-01-22T18:12:27.476Z,2.73
2024-01-22T18:15:15.521Z,2.70
2024-01-22T18:18:04.363Z,2.80
2024-01-22T18:20:52.428Z,3.97
2024-01-22T18:23:40.427Z,2.60
2024-01-22T18:29:18.437Z,2.83
2024-01-22T18:32:07.450Z,3.53
2024-01-22T18:34:55.500Z,2.73
2024-01-22T18:37:43.541Z,3.23
2024-01-22T18:40:31.680Z,3.13
2024-01-22T18:43:20.089Z,2.63
2024-01-22T18:46:13.688Z,3.10
2024-01-22T18:49:05.457Z,3.20
2024-01-22T18:51:54.501Z,3.23
2024-01-22T18:54:42.491Z,3.70
2024-01-22T18:57:30.730Z,2.80
2024-01-22T19:00:19.490Z,3.20
2024-01-22T19:03:09.050Z,3.40
2024-01-22T19:06:01.571Z,2.60
2024-01-22T19:08:49.681Z,2.93
2024-01-22T19:11:38.038Z,2.83
2024-01-22T19:14:26.015Z,2.80
2024-01-22T19:17:14.020Z,2.93
2024-01-22T19:20:04.702Z,2.67
2024-01-22T19:22:53.684Z,2.70
2024-01-22T19:25:41.841Z,2.40
2024-01-22T19:28:29.932Z,2.80
2024-01-22T19:31:18.129Z,2.60
2024-01-22T19:34:06.289Z,2.70
2024-01-22T19:36:56.387Z,2.67
2024-01-22T19:39:44.850Z,2.80
2024-01-22T19:42:33.153Z,2.70
2024-01-22T19:45:21.262Z,2.83
2024-01-22T19:48:09.849Z,3.37
2024-01-22T19:50:58.260Z,3.03
2024-01-22T19:53:47.690Z,3.07
2024-01-22T19:56:36.022Z,3.23
2024-01-22T19:59:24.245Z,2.77
2024-01-22T20:02:13.512Z,2.60
2024-01-22T20:05:01.773Z,2.63
2024-01-22T20:07:53.540Z,3.10
2024-01-22T20:10:43.274Z,2.60
2024-01-22T20:13:32.359Z,2.80
2024-01-22T20:16:20.410Z,2.37
2024-01-22T20:19:08.611Z,3.23
2024-01-22T20:21:56.686Z,2.37
2024-01-22T20:24:44.749Z,2.87
2024-01-22T20:27:34.814Z,2.40
2024-01-22T20:30:23.301Z,3.30
2024-01-22T20:33:11.809Z,3.77
2024-01-22T20:35:59.988Z,3.30
2024-01-22T20:38:48.116Z,3.00
2024-01-22T20:41:36.195Z,2.60
2024-01-22T20:44:25.634Z,4.07
2024-01-22T20:47:16.801Z,3.00
2024-01-22T20:50:05.618Z,3.60
2024-01-22T20:52:53.695Z,2.90
2024-01-22T20:55:41.813Z,3.57
2024-01-22T20:58:30.281Z,3.03
2024-01-22T21:01:19.745Z,3.03
2024-01-22T21:04:08.096Z,2.70
2024-01-22T21:06:56.338Z,2.73
2024-01-22T21:09:44.708Z,3.63
2024-01-22T21:12:32.895Z,3.30
2024-01-22T21:15:21.146Z,3.90
2024-01-22T21:18:10.723Z,3.47
2024-01-22T21:20:59.809Z,3.67
2024-01-22T21:23:50.852Z,3.30
2024-01-22T21:26:39.049Z,2.83
2024-01-22T21:29:27.955Z,3.80
2024-01-22T21:32:15.975Z,3.13
2024-01-22T21:35:05.902Z,3.07
2024-01-22T21:37:54.200Z,3.47
2024-01-22T21:40:42.306Z,3.50
2024-01-22T21:43:30.761Z,3.30
2024-01-22T21:46:22.681Z,2.73
2024-01-22T21:49:10.857Z,3.27
2024-01-22T21:52:00.324Z,3.23
2024-01-22T21:54:48.502Z,3.60
2024-01-22T21:57:36.774Z,3.23
2024-01-22T22:00:25.193Z,2.93
2024-01-22T22:03:13.353Z,2.33
2024-01-22T22:06:02.090Z,2.83
2024-01-22T22:08:51.646Z,2.90
2024-01-22T22:11:40.204Z,2.70
2024-01-22T22:14:30.086Z,2.50
2024-01-22T22:17:18.351Z,2.80
2024-01-22T22:20:07.745Z,3.00
2024-01-22T22:22:57.387Z,2.37
2024-01-22T22:25:46.842Z,2.37
2024-01-22T22:28:35.100Z,2.47
2024-01-22T22:31:23.090Z,3.00
2024-01-22T22:34:11.433Z,2.73
2024-01-22T22:36:59.819Z,3.10
2024-01-22T22:39:47.892Z,2.90
2024-01-22T22:42:37.467Z,2.63
2024-01-22T22:45:25.699Z,2.83
2024-01-22T22:48:13.985Z,2.50
2024-01-22T22:51:02.071Z,2.83
2024-01-22T22:53:50.147Z,2.90
2024-01-22T22:56:38.302Z,3.20
2024-01-22T22:59:27.664Z,2.83
2024-01-22T23:02:16.082Z,2.87
2024-01-22T23:05:04.613Z,3.23
2024-01-22T23:07:52.759Z,2.90
2024-01-22T23:10:40.790Z,2.87
2024-01-22T23:13:28.768Z,2.33
2024-01-22T23:16:18.085Z,2.57
2024-01-22T23:19:06.258Z,3.07
2024-01-22T23:21:54.452Z,2.70
2024-01-22T23:24:42.797Z,2.37
2024-01-22T23:27:32.612Z,1.70
2024-01-22T23:30:21.830Z,2.07
2024-01-22T23:33:11.499Z,1.60
2024-01-22T23:35:59.635Z,1.20
2024-01-22T23:38:50.808Z,1.10
2024-01-22T23:41:38.884Z,1.17
2024-01-22T23:44:26.907Z,1.30
2024-01-22T23:47:15.221Z,1.60
2024-01-22T23:50:05.022Z,1.83
2024-01-22T23:52:53.174Z,1.90
2024-01-22T23:55:41.255Z,2.00
2024-01-22T23:58:29.528Z,2.90
